This is the latest recevied weather packets stored in our database for station/object KB2M. If no packets are shown the sender has not sent any weather packets the latest 10 day(s).
| Time | Temp. | Humidity | Pressure | Rain* | Wind** | Luminosity | Snow |
|---|---|---|---|---|---|---|---|
| 1777747655 | 20.56° C | 93% | 1011.1 hPa | 3.3 mm | - | - | - |
| 1777747055 | 21.11° C | 93% | 1011.1 hPa | 3.3 mm | - | - | - |
| 1777746455 | 21.67° C | 91% | 1011.5 hPa | 2.29 mm | - | - | - |
| 1777745854 | 22.22° C | 89% | 1012.1 hPa | 1.78 mm | - | - | - |
| 1777745254 | 22.78° C | 86% | 1011.8 hPa | 1.27 mm | - | - | - |
| 1777744653 | 24.44° C | 86% | 1011.8 hPa | 0.51 mm | - | - | - |
| 1777744053 | 25.56° C | 75% | 1011.5 hPa | 0 mm | - | - | - |
| 1777743452 | 26.11° C | 75% | 1011.8 hPa | 0 mm | - | - | - |
| 1777742851 | 26.11° C | 74% | 1011.5 hPa | 0 mm | - | - | - |
| 1777742251 | 26.67° C | 71% | 1011.5 hPa | 0 mm | - | - | - |
| 1777741650 | 26.67° C | 69% | 1011.5 hPa | 0 mm | - | - | - |
| 1777741050 | 26.67° C | 69% | 1011.5 hPa | 0 mm | - | - | - |
| 1777740449 | 26.67° C | 69% | 1011.5 hPa | 0 mm | - | - | - |
| 1777739848 | 26.67° C | 69% | 1011.5 hPa | 0 mm | - | - | - |
| 1777739248 | 26.67° C | 69% | 1011.5 hPa | 0 mm | - | - | - |
| 1777738647 | 26.67° C | 70% | 1011.1 hPa | 0 mm | - | - | - |
| 1777738047 | 26.11° C | 70% | 1011.5 hPa | 0 mm | - | - | - |
| 1777737446 | 26.11° C | 72% | 1011.5 hPa | 0 mm | - | - | - |
| 1777736846 | 26.11° C | 72% | 1011.5 hPa | 0 mm | - | - | - |
| 1777736245 | 26.11° C | 72% | 1011.5 hPa | 0 mm | - | - | - |
| 1777735644 | 25.56° C | 73% | 1011.8 hPa | 0 mm | - | - | - |
| 1777735044 | 25.56° C | 74% | 1011.8 hPa | 0 mm | - | - | - |
| 1777734443 | 25° C | 75% | 1011.8 hPa | 0 mm | - | - | - |
| 1777733842 | 25° C | 76% | 1012.5 hPa | 0 mm | - | - | - |
| 1777733242 | 24.44° C | 79% | 1012.1 hPa | 0 mm | - | - | - |
* Rain latest hour (hover to see other rain measurements)
** Current wind speed in m/s (hover to see current wind gust speed)